Time;durP1;ratioP1;P1;durP2;ratioP2;P2;SDS_P1;SDS_P2;PMS_P1;PMS_P2;Temp;Humidity;BMP_temperature;BMP_pressure;BME280_temperature;BME280_humidity;BME280_pressure;Samples;Min_cycle;Max_cycle;Signal;HPM_P1;HPM_P2
2021/05/25 00:00:22;;;;;;;3.70;2.30;;;;;;;15.63;56.06;100313.39;102231;1124;80728;-58
2021/05/25 00:02:49;;;;;;;6.10;2.30;;;;;;;15.64;55.67;100316.95;102199;1124;82684;-58
2021/05/25 00:04:54;;;;;;;3.80;2.50;;;;;;;15.63;55.66;100312.59;102208;1125;81735;-58
2021/05/25 00:07:00;;;;;;;3.00;2.20;;;;;;;15.62;55.86;100313.63;102217;1124;80606;-58
2021/05/25 00:09:07;;;;;;;5.90;2.80;;;;;;;15.60;55.99;100311.11;102238;1125;82107;-58
2021/05/25 00:11:13;;;;;;;4.60;2.30;;;;;;;15.60;56.74;100305.67;102263;1124;81330;-58
2021/05/25 00:13:19;;;;;;;4.00;2.50;;;;;;;15.64;56.18;100290.56;102257;1124;80829;-60
2021/05/25 00:15:28;;;;;;;3.80;2.10;;;;;;;15.63;56.06;100298.97;102262;1124;80841;-58
2021/05/25 00:17:34;;;;;;;5.00;2.50;;;;;;;15.60;56.20;100293.97;102242;1124;80512;-57
2021/05/25 00:19:39;;;;;;;3.90;2.70;;;;;;;15.59;56.75;100284.96;102244;1124;81831;-58
2021/05/25 00:21:46;;;;;;;3.30;2.20;;;;;;;15.59;56.59;100276.79;102241;1124;81343;-57
2021/05/25 00:23:52;;;;;;;4.50;2.40;;;;;;;15.59;56.48;100276.79;102239;1123;79660;-58
2021/05/25 00:25:57;;;;;;;4.00;2.50;;;;;;;15.59;56.55;100282.23;102239;1124;80483;-58
2021/05/25 00:28:04;;;;;;;3.90;2.60;;;;;;;15.59;56.46;100271.34;102252;1123;82066;-58
2021/05/25 00:30:14;;;;;;;4.30;2.60;;;;;;;15.60;56.71;100275.71;102257;1125;80056;-58
2021/05/25 00:32:20;;;;;;;4.10;2.50;;;;;;;15.61;57.20;100274.66;102273;1124;79907;-58
2021/05/25 00:34:25;;;;;;;6.60;2.70;;;;;;;15.62;56.88;100275.50;102261;1125;81630;-58
2021/05/25 00:36:31;;;;;;;4.60;2.90;;;;;;;15.61;56.95;100277.39;102244;1123;81677;-58
2021/05/25 00:38:37;;;;;;;4.20;2.60;;;;;;;15.62;57.02;100276.34;102241;1124;81181;-58
2021/05/25 00:40:42;;;;;;;4.50;2.80;;;;;;;15.61;56.81;100274.66;102259;1124;81510;-58
2021/05/25 00:42:48;;;;;;;4.90;2.60;;;;;;;15.59;56.75;100270.50;102245;1125;80544;-58
2021/05/25 00:44:55;;;;;;;5.50;2.50;;;;;;;15.57;56.98;100278.91;102257;1123;80989;-57
2021/05/25 00:47:01;;;;;;;3.90;2.60;;;;;;;15.57;57.02;100278.91;102255;1125;79936;-58
2021/05/25 00:49:07;;;;;;;5.20;2.60;;;;;;;15.58;56.94;100280.56;102232;1123;81280;-58
2021/05/25 00:51:13;;;;;;;3.30;2.20;;;;;;;15.58;57.07;100286.00;102227;1124;80945;-58
2021/05/25 00:53:18;;;;;;;4.50;2.50;;;;;;;15.56;57.37;100290.85;102219;1124;80115;-58
2021/05/25 00:55:27;;;;;;;5.50;3.10;;;;;;;15.56;57.67;100288.13;102249;1124;80950;-58
2021/05/25 00:57:33;;;;;;;3.60;2.40;;;;;;;15.57;57.40;100292.53;102258;1124;81329;-58
2021/05/25 00:59:40;;;;;;;4.50;2.80;;;;;;;15.54;57.44;100282.08;102237;1124;80118;-58
2021/05/25 01:01:46;;;;;;;4.10;2.70;;;;;;;15.53;57.57;100283.13;102205;1124;80386;-58
2021/05/25 01:03:52;;;;;;;4.10;2.90;;;;;;;15.52;57.66;100281.45;102218;1124;81869;-59
2021/05/25 01:05:58;;;;;;;5.10;2.60;;;;;;;15.51;57.36;100274.36;102232;1124;81528;-58
2021/05/25 01:08:07;;;;;;;4.00;2.80;;;;;;;15.49;57.58;100264.75;102229;1124;80979;-58
2021/05/25 01:10:18;;;;;;;4.40;2.40;;;;;;;15.47;57.61;100264.96;102271;1125;80936;-58
2021/05/25 01:12:28;;;;;;;5.40;3.20;;;;;;;15.46;57.55;100265.17;102228;1125;81208;-58
2021/05/25 01:14:39;;;;;;;4.40;2.40;;;;;;;15.42;57.95;100274.82;102255;1124;81239;-58
2021/05/25 01:16:45;;;;;;;5.60;2.90;;;;;;;15.42;57.79;100275.66;102233;1123;81306;-58
2021/05/25 01:18:51;;;;;;;4.90;2.50;;;;;;;15.40;57.74;100272.34;102240;1124;81375;-58
2021/05/25 01:20:56;;;;;;;3.70;2.50;;;;;;;15.39;57.84;100267.94;102207;1123;81185;-58
2021/05/25 01:23:07;;;;;;;4.50;2.60;;;;;;;15.38;58.07;100268.17;102210;1125;83002;-57
2021/05/25 01:25:16;;;;;;;3.40;2.40;;;;;;;15.36;58.08;100265.66;102269;1124;80568;-58
2021/05/25 01:27:23;;;;;;;5.30;2.70;;;;;;;15.34;58.18;100256.89;102249;1124;80541;-58
2021/05/25 01:29:29;;;;;;;4.90;2.70;;;;;;;15.36;58.38;100254.77;102226;1124;80403;-58
2021/05/25 01:31:34;;;;;;;6.60;2.60;;;;;;;15.36;58.25;100243.88;102231;1123;80130;-58
2021/05/25 01:33:41;;;;;;;4.60;2.90;;;;;;;15.36;58.91;100233.00;102210;1125;81735;-58
2021/05/25 01:35:47;;;;;;;4.70;2.80;;;;;;;15.35;58.91;100226.72;102241;1123;81414;-58
2021/05/25 01:37:54;;;;;;;4.80;2.50;;;;;;;15.35;59.16;100206.86;102251;1124;81571;-58
2021/05/25 01:40:00;;;;;;;3.30;2.70;;;;;;;15.32;59.24;100193.69;102262;1125;81787;-58
2021/05/25 01:42:07;;;;;;;5.90;3.30;;;;;;;15.26;59.44;100179.09;102223;1123;80257;-58
2021/05/25 01:44:12;;;;;;;5.70;3.10;;;;;;;15.26;59.62;100178.25;102225;1124;79651;-58
2021/05/25 01:46:18;;;;;;;5.70;3.30;;;;;;;15.19;60.03;100178.30;102244;1123;81982;-58
2021/05/25 01:48:30;;;;;;;4.50;2.60;;;;;;;15.16;60.46;100181.48;102198;1124;80035;-58
2021/05/25 01:50:38;;;;;;;4.70;3.10;;;;;;;15.12;60.69;100176.72;102239;1123;80941;-57
2021/05/25 01:53:01;;;;;;;4.20;3.00;;;;;;;15.11;60.29;100181.32;102230;1123;82416;-58
2021/05/25 01:55:10;;;;;;;4.60;2.50;;;;;;;15.12;60.55;100174.00;102226;1124;81495;-58
2021/05/25 01:57:16;;;;;;;4.40;3.00;;;;;;;15.10;61.01;100167.95;102240;1124;81078;-58
2021/05/25 01:59:22;;;;;;;5.10;2.90;;;;;;;15.08;60.91;100164.63;102222;1124;81653;-58
2021/05/25 02:01:27;;;;;;;6.30;3.50;;;;;;;15.04;61.02;100157.96;102246;1124;80245;-58
2021/05/25 02:03:34;;;;;;;3.80;3.30;;;;;;;15.02;61.13;100160.08;102208;1124;80225;-58
2021/05/25 02:05:41;;;;;;;5.30;2.60;;;;;;;14.99;61.07;100165.97;102263;1125;81535;-58
2021/05/25 02:07:51;;;;;;;4.20;3.00;;;;;;;14.95;61.59;100175.61;102205;1124;81056;-58
2021/05/25 02:09:57;;;;;;;4.70;2.90;;;;;;;14.92;62.06;100184.22;102232;1124;80045;-58
2021/05/25 02:12:03;;;;;;;5.20;3.10;;;;;;;14.88;62.61;100186.57;102232;1124;80898;-58
2021/05/25 02:14:08;;;;;;;4.50;3.10;;;;;;;14.76;62.67;100181.02;102232;1124;80130;-58
2021/05/25 02:16:17;;;;;;;3.60;3.10;;;;;;;14.75;62.72;100184.78;102227;1124;80882;-58
2021/05/25 02:18:28;;;;;;;4.90;3.10;;;;;;;14.74;63.07;100174.97;102232;1124;81744;-58
2021/05/25 02:20:39;;;;;;;5.00;2.70;;;;;;;14.75;63.04;100178.50;102251;1124;81471;-58
2021/05/25 02:22:45;;;;;;;4.10;2.90;;;;;;;14.74;63.36;100179.58;102250;1123;80239;-58
2021/05/25 02:24:50;;;;;;;5.60;2.80;;;;;;;14.67;63.75;100187.77;102246;1124;82336;-58
2021/05/25 02:26:56;;;;;;;6.30;3.10;;;;;;;14.65;63.93;100187.17;102245;1123;80537;-58
2021/05/25 02:29:02;;;;;;;4.70;3.00;;;;;;;14.59;64.13;100181.77;102232;1124;81485;-57
2021/05/25 02:31:10;;;;;;;5.00;3.30;;;;;;;14.55;64.42;100184.12;102225;1124;81774;-58
2021/05/25 02:33:18;;;;;;;4.40;3.10;;;;;;;14.55;65.02;100184.12;102229;1124;80689;-58
2021/05/25 02:35:24;;;;;;;5.40;3.30;;;;;;;14.54;65.34;100193.31;102222;1124;81370;-59
2021/05/25 02:37:30;;;;;;;4.90;3.10;;;;;;;14.47;65.78;100192.54;102218;1124;80540;-59
2021/05/25 02:39:35;;;;;;;3.90;2.90;;;;;;;14.44;65.57;100184.82;102226;1123;80624;-59
2021/05/25 02:41:41;;;;;;;4.60;3.00;;;;;;;14.43;65.66;100185.86;102214;1124;80167;-59
2021/05/25 02:43:49;;;;;;;4.00;3.00;;;;;;;14.43;66.14;100182.30;102234;1124;81675;-59
2021/05/25 02:45:56;;;;;;;6.70;3.10;;;;;;;14.36;66.59;100178.81;102264;1124;81180;-59
2021/05/25 02:48:03;;;;;;;3.40;2.70;;;;;;;14.29;66.99;100176.09;102247;1124;81510;-59
2021/05/25 02:50:13;;;;;;;5.20;3.40;;;;;;;14.26;66.90;100175.69;102253;1123;80266;-58
2021/05/25 02:52:19;;;;;;;2.80;2.40;;;;;;;14.23;67.57;100179.67;102222;1124;79712;-58
2021/05/25 02:54:24;;;;;;;3.80;2.80;;;;;;;14.15;67.36;100163.64;102238;1125;81668;-59
2021/05/25 02:56:30;;;;;;;4.00;2.80;;;;;;;14.17;67.48;100166.98;102217;1124;81566;-62
2021/05/25 02:58:38;;;;;;;4.20;2.80;;;;;;;14.19;67.73;100164.88;102247;1124;82115;-58
2021/05/25 03:00:46;;;;;;;3.20;2.90;;;;;;;14.11;67.92;100163.27;102233;1124;81770;-58
2021/05/25 03:02:53;;;;;;;4.30;3.00;;;;;;;14.10;68.00;100155.31;102277;1124;81301;-59
2021/05/25 03:04:58;;;;;;;5.70;3.50;;;;;;;14.10;68.42;100160.75;102244;1124;80991;-58
2021/05/25 03:07:04;;;;;;;6.50;3.60;;;;;;;14.07;68.43;100151.15;102236;1123;81992;-57
2021/05/25 03:09:10;;;;;;;6.20;2.90;;;;;;;14.05;68.61;100152.42;102167;1124;80674;-57
2021/05/25 03:11:15;;;;;;;5.00;3.20;;;;;;;14.10;68.63;100141.73;102209;1124;82069;-58
2021/05/25 03:13:23;;;;;;;4.40;3.30;;;;;;;14.09;68.76;100148.23;102262;1124;80105;-58
2021/05/25 03:15:33;;;;;;;4.90;3.10;;;;;;;14.02;69.62;100144.70;102261;1123;79692;-59
2021/05/25 03:17:42;;;;;;;5.20;3.00;;;;;;;14.01;69.29;100130.28;102214;1124;81356;-57
2021/05/25 03:19:48;;;;;;;6.10;3.40;;;;;;;14.00;69.17;100134.08;102250;1124;81575;-58
2021/05/25 03:21:54;;;;;;;3.80;2.60;;;;;;;14.02;69.38;100129.25;102246;1124;81544;-58
2021/05/25 03:23:59;;;;;;;3.40;2.40;;;;;;;14.02;69.76;100123.81;102220;1124;80529;-58
2021/05/25 03:26:05;;;;;;;3.80;3.00;;;;;;;14.04;69.77;100123.58;102221;1124;81385;-58
2021/05/25 03:28:11;;;;;;;5.50;2.60;;;;;;;14.06;69.81;100132.38;102227;1124;80839;-58
2021/05/25 03:30:23;;;;;;;3.70;2.90;;;;;;;14.03;69.81;100133.64;102236;1123;81121;-58
2021/05/25 03:32:28;;;;;;;4.20;2.70;;;;;;;14.04;69.87;100127.14;102226;1124;81164;-58
2021/05/25 03:34:34;;;;;;;5.60;2.70;;;;;;;14.02;70.07;100125.70;102195;1123;82912;-58
2021/05/25 03:36:40;;;;;;;3.40;2.40;;;;;;;14.02;70.14;100125.70;102211;1124;81127;-58
2021/05/25 03:38:49;;;;;;;4.30;2.90;;;;;;;14.07;70.07;100134.86;102226;1124;80590;-58
2021/05/25 03:40:54;;;;;;;3.90;3.00;;;;;;;14.04;70.31;100131.73;102226;1124;82141;-58
2021/05/25 03:43:00;;;;;;;5.60;3.30;;;;;;;14.03;70.41;100146.38;102225;1124;81276;-57
2021/05/25 03:45:08;;;;;;;4.20;3.10;;;;;;;14.04;70.64;100134.45;102218;1124;81646;-57
2021/05/25 03:47:14;;;;;;;3.90;2.50;;;;;;;14.04;70.50;100135.28;102248;1124;80944;-57
2021/05/25 03:49:19;;;;;;;4.80;3.30;;;;;;;14.07;70.60;100129.42;102229;1124;81519;-57
2021/05/25 03:51:25;;;;;;;4.00;2.80;;;;;;;14.08;71.15;100138.41;102228;1123;81831;-58
2021/05/25 03:53:31;;;;;;;4.30;2.80;;;;;;;14.06;71.00;100116.88;102231;1123;81109;-57
2021/05/25 03:55:50;;;;;;;4.30;2.80;;;;;;;14.06;71.11;100121.51;102246;1124;81595;-58
2021/05/25 04:00:20;;;;;;;5.10;2.90;;;;;;;14.03;71.21;100111.08;102246;1124;82026;-59
2021/05/25 04:02:26;;;;;;;4.70;2.90;;;;;;;14.05;71.36;100108.97;102233;1124;81434;-59
2021/05/25 04:04:34;;;;;;;5.30;3.00;;;;;;;14.07;72.14;100109.57;102234;1124;80347;-58
2021/05/25 04:06:41;;;;;;;4.00;2.70;;;;;;;14.05;71.83;100104.37;102239;1124;81641;-58
2021/05/25 04:08:48;;;;;;;4.60;2.90;;;;;;;14.10;71.50;100100.98;102226;1124;80176;-58
2021/05/25 04:10:56;;;;;;;5.10;2.80;;;;;;;14.10;71.73;100106.41;102212;1124;80000;-58
2021/05/25 04:13:02;;;;;;;3.40;2.70;;;;;;;14.16;71.58;100108.27;102203;1123;81522;-58
2021/05/25 04:15:10;;;;;;;7.30;3.10;;;;;;;14.22;71.62;100101.12;102237;1125;81310;-58
2021/05/25 04:17:16;;;;;;;3.50;3.00;;;;;;;14.18;71.94;100103.44;102253;1123;80660;-58
2021/05/25 04:19:22;;;;;;;5.40;3.70;;;;;;;14.22;71.65;100110.11;102238;1123;81745;-58
2021/05/25 04:21:28;;;;;;;4.60;2.80;;;;;;;14.31;71.66;100100.61;102203;1124;81134;-58
2021/05/25 04:23:33;;;;;;;3.20;2.90;;;;;;;14.36;71.57;100086.41;102224;1125;81552;-58
2021/05/25 04:25:39;;;;;;;3.70;2.70;;;;;;;14.36;72.21;100076.39;102225;1123;82346;-58
2021/05/25 04:27:45;;;;;;;6.20;2.80;;;;;;;14.35;71.94;100091.02;102220;1124;82291;-58
2021/05/25 04:29:53;;;;;;;3.50;2.90;;;;;;;14.34;72.18;100100.20;102219;1125;82314;-57
2021/05/25 04:31:59;;;;;;;4.00;3.10;;;;;;;14.27;72.69;100102.13;102215;1125;80263;-57
2021/05/25 04:34:05;;;;;;;4.40;3.00;;;;;;;14.24;72.50;100102.56;102233;1124;79928;-58
2021/05/25 04:36:11;;;;;;;3.80;2.70;;;;;;;14.22;72.48;100098.41;102232;1124;80627;-54
2021/05/25 04:38:16;;;;;;;3.70;2.90;;;;;;;14.20;72.48;100094.01;102216;1124;81504;-57
2021/05/25 04:40:22;;;;;;;4.90;3.30;;;;;;;14.23;72.35;100102.80;102241;1124;81211;-58
2021/05/25 04:42:28;;;;;;;5.50;2.90;;;;;;;14.25;72.61;100098.80;102223;1124;81581;-57
2021/05/25 04:44:33;;;;;;;38.10;28.30;;;;;;;14.22;73.10;100104.67;102239;1124;81321;-57
2021/05/25 04:46:39;;;;;;;43.20;33.70;;;;;;;14.20;72.72;100098.64;102210;1123;81760;-58
2021/05/25 04:48:45;;;;;;;24.40;21.50;;;;;;;14.21;72.60;100094.84;102204;1124;81713;-58
2021/05/25 04:50:51;;;;;;;6.50;5.70;;;;;;;14.23;72.70;100090.02;102222;1124;81370;-58
2021/05/25 04:52:59;;;;;;;3.80;3.10;;;;;;;14.24;72.68;100085.42;102239;1123;81671;-59
2021/05/25 04:55:09;;;;;;;4.10;3.10;;;;;;;14.24;73.01;100096.29;102228;1123;81543;-59
2021/05/25 04:57:15;;;;;;;6.30;3.00;;;;;;;14.28;72.69;100095.65;102258;1123;80878;-59
2021/05/25 04:59:21;;;;;;;6.40;2.90;;;;;;;14.27;72.85;100091.25;102257;1124;81711;-59
2021/05/25 05:01:27;;;;;;;4.30;3.20;;;;;;;14.25;73.32;100087.09;102234;1124;81381;-61
2021/05/25 05:03:33;;;;;;;5.00;3.80;;;;;;;14.22;73.83;100101.12;102226;1124;81197;-60
2021/05/25 05:05:39;;;;;;;4.30;3.30;;;;;;;14.18;73.08;100098.84;102227;1124;81299;-59
2021/05/25 05:07:46;;;;;;;2.70;2.40;;;;;;;14.18;73.95;100101.55;102239;1124;80228;-60
2021/05/25 05:09:52;;;;;;;4.70;3.20;;;;;;;14.17;73.40;100118.09;102221;1123;79937;-59
2021/05/25 05:11:58;;;;;;;5.00;3.30;;;;;;;14.19;73.49;100115.98;102280;1124;79774;-58
2021/05/25 05:14:04;;;;;;;7.90;3.50;;;;;;;14.24;74.17;100118.86;102291;1123;81538;-58
2021/05/25 05:16:13;;;;;;;3.90;3.10;;;;;;;14.13;73.66;100117.69;102317;1123;80503;-57
2021/05/25 05:18:18;;;;;;;4.50;2.90;;;;;;;14.17;73.40;100118.90;102325;1123;80038;-57
2021/05/25 05:20:24;;;;;;;5.00;3.10;;;;;;;14.14;73.68;100130.23;102269;1124;82146;-58
2021/05/25 05:22:30;;;;;;;5.80;3.20;;;;;;;14.17;73.73;100118.09;102281;1124;81416;-57
2021/05/25 05:24:35;;;;;;;4.50;3.20;;;;;;;14.09;73.98;100118.35;102322;1124;81886;-58
2021/05/25 05:26:41;;;;;;;3.40;3.10;;;;;;;14.10;74.33;100131.70;102234;1124;79759;-58
2021/05/25 05:28:50;;;;;;;4.60;3.10;;;;;;;14.11;74.00;100127.11;102304;1124;80022;-59
2021/05/25 05:30:56;;;;;;;5.30;3.30;;;;;;;14.18;73.74;100127.88;102270;1124;81346;-59
2021/05/25 05:33:02;;;;;;;4.00;3.10;;;;;;;14.12;74.31;100134.19;102298;1124;81683;-58
2021/05/25 05:35:11;;;;;;;4.40;3.50;;;;;;;14.17;74.26;100128.95;102273;1124;81318;-58
2021/05/25 05:37:16;;;;;;;5.60;3.00;;;;;;;14.21;74.12;100122.02;102292;1124;80794;-59
2021/05/25 05:39:22;;;;;;;4.10;3.10;;;;;;;14.19;74.30;100118.70;102276;1124;80262;-59
2021/05/25 05:41:31;;;;;;;5.80;3.30;;;;;;;14.22;74.28;100118.26;102299;1124;80959;-58
2021/05/25 05:43:37;;;;;;;4.40;3.00;;;;;;;14.23;74.51;100117.19;102271;1124;80916;-58
2021/05/25 05:45:43;;;;;;;3.90;2.90;;;;;;;14.31;74.28;100113.39;102353;1123;81011;-59
2021/05/25 05:47:48;;;;;;;4.70;3.10;;;;;;;14.33;75.10;100116.75;102290;1123;81038;-60
2021/05/25 05:49:54;;;;;;;3.70;3.30;;;;;;;14.37;74.67;100110.64;102321;1123;81494;-59
2021/05/25 05:52:00;;;;;;;4.60;3.10;;;;;;;14.42;74.53;100108.09;102303;1124;80823;-58
2021/05/25 05:54:08;;;;;;;3.20;2.60;;;;;;;14.47;74.42;100112.88;102303;1123;79821;-58
2021/05/25 05:56:16;;;;;;;4.10;2.50;;;;;;;14.47;74.62;100111.00;102325;1124;79827;-58
2021/05/25 05:58:21;;;;;;;4.50;3.00;;;;;;;14.51;74.49;100111.36;102301;1124;81802;-58
2021/05/25 06:00:29;;;;;;;4.40;3.10;;;;;;;14.51;75.08;100104.05;102317;1124;82294;-59
2021/05/25 06:02:36;;;;;;;4.60;2.70;;;;;;;14.56;74.89;100101.48;102300;1124;82120;-62
2021/05/25 06:04:42;;;;;;;4.50;3.30;;;;;;;14.61;74.69;100101.65;102323;1124;81535;-59
2021/05/25 06:06:47;;;;;;;4.90;2.80;;;;;;;14.64;74.59;100100.41;102293;1124;82350;-59
2021/05/25 06:08:53;;;;;;;4.00;2.90;;;;;;;14.65;74.69;100099.33;102270;1124;80597;-60
2021/05/25 06:10:59;;;;;;;5.40;3.40;;;;;;;14.63;74.60;100094.13;102231;1123;80820;-59
2021/05/25 06:13:05;;;;;;;3.40;3.00;;;;;;;14.64;74.83;100093.05;102190;1124;81193;-59
2021/05/25 06:15:15;;;;;;;4.70;3.00;;;;;;;14.59;74.68;100095.61;102247;1123;81003;-59
2021/05/25 06:17:21;;;;;;;4.60;3.20;;;;;;;14.58;74.57;100096.69;102298;1123;80538;-59
2021/05/25 06:19:27;;;;;;;5.60;2.90;;;;;;;14.56;74.79;100098.77;102304;1125;81908;-59
2021/05/25 06:21:35;;;;;;;6.50;3.40;;;;;;;14.54;74.71;100098.17;102283;1123;81399;-60
2021/05/25 06:23:44;;;;;;;3.80;2.70;;;;;;;14.55;74.79;100102.56;102242;1124;80905;-59
2021/05/25 06:25:50;;;;;;;4.50;3.30;;;;;;;14.59;74.91;100105.64;102294;1123;80396;-60
2021/05/25 06:27:59;;;;;;;4.90;3.30;;;;;;;14.62;74.85;100099.77;102315;1123;81092;-59
2021/05/25 06:30:07;;;;;;;4.20;2.70;;;;;;;14.58;74.93;100102.13;102268;1124;81820;-59
2021/05/25 06:32:14;;;;;;;5.80;3.20;;;;;;;14.60;75.07;100100.00;102257;1125;80735;-59
2021/05/25 06:34:19;;;;;;;4.50;2.50;;;;;;;14.63;75.17;100099.56;102322;1124;81532;-58
2021/05/25 06:36:25;;;;;;;3.30;2.80;;;;;;;14.64;75.17;100103.92;102273;1125;79823;-61
2021/05/25 06:38:30;;;;;;;3.90;2.90;;;;;;;14.68;75.15;100097.00;102293;1125;81121;-58
2021/05/25 06:40:36;;;;;;;3.70;2.70;;;;;;;14.75;75.09;100091.48;102305;1124;81396;-58
2021/05/25 06:42:42;;;;;;;3.60;2.60;;;;;;;14.81;75.11;100087.88;102255;1124;81088;-59
2021/05/25 06:44:48;;;;;;;4.00;3.00;;;;;;;14.88;75.10;100093.27;102292;1124;80669;-58
2021/05/25 06:46:54;;;;;;;4.80;2.90;;;;;;;14.96;74.98;100085.64;102289;1125;80920;-62
2021/05/25 06:48:59;;;;;;;4.00;2.70;;;;;;;15.08;74.76;100088.45;102276;1123;81054;-58
2021/05/25 06:51:08;;;;;;;3.50;2.70;;;;;;;15.11;75.22;100082.53;102321;1124;81526;-58
2021/05/25 06:53:15;;;;;;;5.70;2.90;;;;;;;15.15;75.10;100083.76;102310;1124;79993;-60
2021/05/25 06:55:21;;;;;;;4.30;2.70;;;;;;;15.20;75.02;100083.91;102310;1123;81181;-57
2021/05/25 06:57:27;;;;;;;3.30;2.90;;;;;;;15.23;74.88;100083.45;102290;1124;81142;-58
2021/05/25 06:59:36;;;;;;;4.10;2.90;;;;;;;15.26;74.78;100075.67;102297;1125;81480;-58
2021/05/25 07:01:42;;;;;;;3.70;2.70;;;;;;;15.35;74.69;100079.73;102290;1124;82050;-57
2021/05/25 07:03:49;;;;;;;3.10;2.70;;;;;;;15.41;74.81;100080.70;102335;1124;81772;-57
2021/05/25 07:05:58;;;;;;;3.80;2.60;;;;;;;15.40;74.69;100075.51;102323;1124;81083;-57
2021/05/25 07:08:05;;;;;;;2.90;2.50;;;;;;;15.45;74.73;100079.20;102254;1124;81414;-57
2021/05/25 07:10:15;;;;;;;3.90;2.70;;;;;;;15.55;74.63;100081.41;102306;1124;81258;-58
2021/05/25 07:12:23;;;;;;;5.60;2.60;;;;;;;15.58;74.60;100087.23;102311;1124;81228;-58
2021/05/25 07:14:32;;;;;;;4.00;2.20;;;;;;;15.70;74.73;100082.69;102321;1124;80963;-59
2021/05/25 07:16:38;;;;;;;4.00;2.90;;;;;;;15.92;74.49;100075.67;102243;1124;81109;-59
2021/05/25 07:18:44;;;;;;;3.50;2.60;;;;;;;16.01;74.21;100072.61;102304;1125;80940;-59
2021/05/25 07:20:49;;;;;;;3.30;2.50;;;;;;;16.13;74.28;100076.18;102294;1124;80785;-59
2021/05/25 07:22:55;;;;;;;6.50;2.90;;;;;;;16.22;73.96;100069.34;102288;1124;79952;-59
2021/05/25 07:25:01;;;;;;;3.80;2.50;;;;;;;16.41;73.96;100062.73;102302;1124;82454;-59
2021/05/25 07:27:08;;;;;;;4.00;2.50;;;;;;;16.57;73.99;100069.41;102292;1124;81504;-59
2021/05/25 07:29:13;;;;;;;3.90;2.60;;;;;;;16.79;73.52;100070.48;102306;1124;80685;-59
2021/05/25 07:31:19;;;;;;;3.50;2.30;;;;;;;16.78;73.24;100071.57;102305;1124;81382;-59
2021/05/25 07:33:28;;;;;;;4.00;2.60;;;;;;;16.70;72.75;100063.74;102297;1124;81545;-59
2021/05/25 07:35:34;;;;;;;5.30;2.40;;;;;;;16.69;72.89;100064.80;102306;1124;81322;-58
2021/05/25 07:37:40;;;;;;;5.60;2.50;;;;;;;16.60;72.57;100068.94;102234;1124;81487;-58
2021/05/25 07:39:46;;;;;;;5.20;2.50;;;;;;;16.60;72.75;100069.77;102292;1123;80945;-59
2021/05/25 07:41:55;;;;;;;3.20;2.30;;;;;;;16.59;72.67;100065.38;102304;1123;81290;-59
2021/05/25 07:44:00;;;;;;;3.00;1.90;;;;;;;16.63;72.74;100060.28;102316;1124;81646;-59
2021/05/25 07:46:06;;;;;;;6.20;2.70;;;;;;;16.59;72.65;100070.02;102295;1124;81780;-59
2021/05/25 07:48:13;;;;;;;3.20;2.30;;;;;;;16.61;72.59;100071.45;102225;1124;81409;-59
2021/05/25 07:50:18;;;;;;;4.10;2.50;;;;;;;16.63;72.59;100066.58;102232;1123;80857;-58
2021/05/25 07:52:24;;;;;;;5.50;2.60;;;;;;;16.84;72.42;100073.32;102299;1124;81464;-58
2021/05/25 07:54:30;;;;;;;4.30;2.30;;;;;;;16.84;72.06;100076.05;102288;1124;80165;-58
2021/05/25 07:56:36;;;;;;;4.90;2.00;;;;;;;16.94;72.15;100079.87;102296;1124;81258;-58
2021/05/25 07:58:42;;;;;;;3.00;2.00;;;;;;;16.95;71.80;100065.14;102325;1123;81123;-58
2021/05/25 08:00:48;;;;;;;4.20;2.30;;;;;;;17.09;72.04;100052.06;102283;1124;80244;-58
2021/05/25 08:02:54;;;;;;;4.00;2.30;;;;;;;17.21;71.87;100046.59;102258;1124;79824;-58
2021/05/25 08:05:00;;;;;;;3.50;2.30;;;;;;;17.30;71.84;100061.53;102316;1124;80540;-59
2021/05/25 08:07:06;;;;;;;3.50;2.40;;;;;;;17.31;71.86;100049.52;102302;1124;79994;-57
2021/05/25 08:09:12;;;;;;;3.40;2.30;;;;;;;17.36;71.53;100046.92;102316;1124;81724;-54
2021/05/25 08:11:17;;;;;;;4.20;1.80;;;;;;;17.34;71.24;100041.68;102212;1124;82360;-55
2021/05/25 08:13:26;;;;;;;3.30;2.20;;;;;;;17.42;71.12;100037.73;102299;1124;80581;-58
2021/05/25 08:15:38;;;;;;;4.60;2.70;;;;;;;17.38;71.15;100045.61;102314;1124;81021;-58
2021/05/25 08:17:51;;;;;;;4.70;2.10;;;;;;;17.47;71.02;100041.39;102302;1124;80985;-58
2021/05/25 08:20:04;;;;;;;4.40;2.50;;;;;;;17.60;70.82;100045.80;102275;1124;81164;-58
2021/05/25 08:22:09;;;;;;;3.00;2.10;;;;;;;17.73;70.68;100034.56;102269;1124;80714;-58
2021/05/25 08:24:16;;;;;;;3.30;2.10;;;;;;;18.02;70.34;100033.45;102306;1124;80434;-58
2021/05/25 08:26:25;;;;;;;2.80;2.10;;;;;;;18.16;70.43;100045.73;102331;1123;80798;-59
2021/05/25 08:28:31;;;;;;;2.80;1.90;;;;;;;18.33;69.58;100033.97;102303;1124;81521;-58
2021/05/25 08:30:41;;;;;;;3.00;2.30;;;;;;;18.39;69.49;100046.66;102305;1123;80107;-59
2021/05/25 08:32:47;;;;;;;4.80;2.10;;;;;;;18.22;68.61;100049.38;102325;1125;81341;-59
2021/05/25 08:34:53;;;;;;;3.30;2.20;;;;;;;17.84;68.78;100047.34;102283;1123;81202;-61
2021/05/25 08:36:58;;;;;;;4.30;2.40;;;;;;;17.66;68.97;100053.02;102303;1124;82179;-58
2021/05/25 08:39:07;;;;;;;3.80;2.00;;;;;;;17.44;69.18;100050.07;102296;1124;81634;-58
2021/05/25 08:41:13;;;;;;;4.20;2.30;;;;;;;17.29;69.48;100051.67;102317;1124;80012;-58
2021/05/25 08:43:27;;;;;;;2.60;2.00;;;;;;;17.26;69.57;100052.15;102288;1124;81250;-58
2021/05/25 08:45:33;;;;;;;2.70;2.00;;;;;;;17.10;69.66;100053.73;102295;1124;81720;-58
2021/05/25 08:47:39;;;;;;;3.30;2.00;;;;;;;17.04;69.82;100049.23;102301;1124;81495;-58
2021/05/25 08:49:47;;;;;;;4.30;2.50;;;;;;;16.91;69.61;100050.33;102351;1124;80956;-57
2021/05/25 08:51:53;;;;;;;3.90;2.00;;;;;;;16.99;70.00;100049.13;102343;1124;82144;-57
2021/05/25 08:54:00;;;;;;;2.90;2.10;;;;;;;16.99;69.77;100052.69;102272;1125;81610;-57
2021/05/25 08:56:09;;;;;;;3.30;1.90;;;;;;;16.98;70.08;100048.28;102282;1124;80928;-57
2021/05/25 08:58:15;;;;;;;2.60;2.00;;;;;;;17.03;70.21;100044.86;102300;1124;81270;-57
2021/05/25 09:00:21;;;;;;;3.30;1.90;;;;;;;17.09;70.17;100047.44;102297;1124;81193;-57
2021/05/25 09:02:27;;;;;;;3.40;2.10;;;;;;;17.09;70.05;100052.90;102325;1124;80192;-57
2021/05/25 09:05:05;;;;;;;3.40;2.10;;;;;;;16.94;70.72;100047.13;102284;1124;81572;-57
2021/05/25 09:07:14;;;;;;;3.30;2.40;;;;;;;16.93;70.57;100053.64;102265;1123;81039;-56
2021/05/25 09:09:24;;;;;;;2.80;2.40;;;;;;;16.94;70.09;100052.58;102282;1124;81217;-58
2021/05/25 09:11:30;;;;;;;4.00;2.40;;;;;;;16.96;70.20;100055.89;102288;1124;81975;-58
2021/05/25 09:13:36;;;;;;;3.70;2.50;;;;;;;16.98;70.04;100053.74;102291;1124;81552;-58
2021/05/25 09:15:46;;;;;;;3.40;2.40;;;;;;;16.87;70.33;100057.31;102319;1124;80506;-58
2021/05/25 09:18:04;;;;;;;1.90;1.70;;;;;;;16.97;70.34;100064.91;102321;1124;81579;-58
2021/05/25 09:20:12;;;;;;;6.10;2.10;;;;;;;17.00;70.14;100073.43;102318;1124;81531;-56
2021/05/25 09:22:31;;;;;;;3.70;2.40;;;;;;;17.02;70.11;100068.59;102272;1124;79947;-56
2021/05/25 09:24:42;;;;;;;3.40;2.50;;;;;;;17.09;69.99;100077.47;102278;1124;80794;-58
2021/05/25 09:26:57;;;;;;;3.30;2.20;;;;;;;17.10;69.84;100078.30;102312;1124;80699;-59
2021/05/25 09:29:06;;;;;;;4.40;2.40;;;;;;;16.99;69.91;100085.44;102240;1124;82521;-59
2021/05/25 09:31:13;;;;;;;3.80;2.50;;;;;;;16.97;69.89;100068.48;102232;1124;81263;-58
2021/05/25 09:33:20;;;;;;;5.30;2.70;;;;;;;16.89;70.18;100065.28;102278;1125;81239;-60
2021/05/25 09:35:29;;;;;;;4.50;2.10;;;;;;;16.73;70.40;100066.80;102364;1124;79921;-57
2021/05/25 09:37:44;;;;;;;3.30;2.20;;;;;;;16.85;70.20;100081.29;102302;1124;81570;-57
2021/05/25 09:39:53;;;;;;;3.90;2.20;;;;;;;16.94;70.16;100076.30;102290;1125;81210;-58
2021/05/25 09:42:06;;;;;;;3.00;2.30;;;;;;;17.15;70.55;100080.30;102297;1123;81777;-56
2021/05/25 09:44:12;;;;;;;4.00;2.50;;;;;;;17.28;70.45;100074.60;102311;1124;80878;-57
2021/05/25 09:46:18;;;;;;;6.10;2.70;;;;;;;17.33;70.05;100067.31;102286;1124;80984;-58